Airport details for: EIKY (Ireland)

Metar

EIKY 250930Z 11002KT CAVOK 08/05 Q1032

General details

ICAO: EIKY
IATA: KIR
Name (city): Kerry
Major:
Country: Ireland
vACC: vACC Ireland
Description:
Scenery links:
FS9 scenery:
FSX/P3D scenery:
XP scenery:
Elevation: 112 ft.
Transition altitude: 5000 ft.
MSA: 6500 ft.
Latitude: 52.180833
Longitude: -9.523889
EIKY Charts
EIKY Notams
EIKY Online stations

Runways

Number Course Length Elevation Lat Lon ILS ILS freq ILS FAC GP
08 78° 6562ft / 2000 m 82ft 52.177986 -9.537628 - - 3.0°
26 258° 6562ft / 2000 m 112ft 52.183767 -9.509939 108.7 258° 3.0°